You are not logged in, Click here to log in
新山一國際機場SGN / VVTS 越南胡志明市
ICAO: VVTS Country: 越南胡志明市
Latitude: 10.8185 Longitude: 106.659
Total Arrivals: 59 Total Departures: 62
Latest Arrival: VJ859 (RCNN-VVTS)Gudetama. Chen Latest Departure: VJ622 (VVTS-VVDN)Gudetama. Chen
Scenery:
METAR : VVTS 190400Z 01005KT 280V070 9999 FEW020 31/16 Q1015 NOSIG

新山一國際機場SGN

You are accessing this site from IP address 35.175.113.29. Virtual Airline. CMS by phpVMS.Website designed by Zumeweb and edited by Theo Bearman.
There is 0 User(s) Online: | and 8 Guest(s) Online.
All information on this site is for fight simulation purposes only. This site is for flight logging for pilots of Virtual Airline&模擬飛行論壇 FlySim only.